Time;durP1;ratioP1;P1;durP2;ratioP2;P2;SDS_P1;SDS_P2;PMS_P1;PMS_P2;Temp;Humidity;BMP_temperature;BMP_pressure;BME280_temperature;BME280_humidity;BME280_pressure;Samples;Min_cycle;Max_cycle;Signal;HPM_P1;HPM_P2
2022/03/21 00:01:18;;;;;;;35.30;20.00;;;9.10;99.90;;;;;;2614100;54;20162;-78
2022/03/21 00:03:44;;;;;;;29.20;19.90;;;9.30;99.90;;;;;;2615207;54;20434;-77
2022/03/21 00:06:10;;;;;;;27.73;16.90;;;9.30;99.90;;;;;;2614768;54;20444;-75
2022/03/21 00:08:36;;;;;;;22.90;17.10;;;9.30;99.90;;;;;;2615376;54;20502;-76
2022/03/21 00:11:03;;;;;;;23.37;17.87;;;9.20;99.90;;;;;;2613847;47;20170;-77
2022/03/21 00:13:31;;;;;;;26.73;18.20;;;9.10;99.90;;;;;;2615564;54;20415;-76
2022/03/21 00:15:57;;;;;;;23.10;16.63;;;9.30;99.90;;;;;;2614395;47;20419;-77
2022/03/21 00:18:25;;;;;;;26.33;17.63;;;9.40;99.90;;;;;;2612821;54;20415;-78
2022/03/21 00:20:53;;;;;;;24.73;16.70;;;9.40;99.90;;;;;;2615533;54;20414;-77
2022/03/21 00:23:21;;;;;;;25.57;19.57;;;9.30;99.90;;;;;;2614887;54;20912;-76
2022/03/21 00:25:47;;;;;;;29.70;18.80;;;9.10;99.90;;;;;;2615495;39;20811;-75
2022/03/21 00:28:13;;;;;;;22.43;18.73;;;9.30;99.90;;;;;;2613841;47;20454;-77
2022/03/21 00:30:42;;;;;;;29.50;19.07;;;9.20;99.90;;;;;;2615100;54;20468;-77
2022/03/21 00:33:09;;;;;;;30.13;19.37;;;9.10;99.90;;;;;;2614558;51;20429;-77
2022/03/21 00:35:35;;;;;;;26.17;18.70;;;9.10;99.90;;;;;;2612851;47;20453;-77
2022/03/21 00:38:01;;;;;;;26.60;17.47;;;9.30;99.90;;;;;;2614489;47;20421;-77
2022/03/21 00:40:31;;;;;;;25.23;17.67;;;9.30;99.90;;;;;;2614605;47;20424;-77
2022/03/21 00:42:58;;;;;;;23.67;16.30;;;9.10;99.90;;;;;;2614745;54;20417;-76
2022/03/21 00:45:25;;;;;;;29.40;18.27;;;9.10;99.90;;;;;;2613915;47;20426;-77
2022/03/21 00:47:52;;;;;;;26.37;16.90;;;9.00;99.90;;;;;;2614062;39;20973;-76
2022/03/21 00:50:21;;;;;;;27.67;19.37;;;8.80;99.90;;;;;;2613848;47;21026;-77
2022/03/21 00:52:57;;;;;;;26.77;16.77;;;8.60;99.90;;;;;;2613934;47;20424;-78
2022/03/21 00:55:26;;;;;;;28.20;18.07;;;8.80;99.90;;;;;;2614508;47;20410;-76
2022/03/21 00:57:52;;;;;;;21.13;17.40;;;8.80;99.90;;;;;;2614681;47;20422;-76
2022/03/21 01:00:25;;;;;;;25.13;18.00;;;9.00;99.90;;;;;;2614726;54;20410;-76
2022/03/21 01:02:51;;;;;;;26.40;18.00;;;9.10;99.90;;;;;;2614915;39;20828;-75
2022/03/21 01:05:19;;;;;;;22.50;17.00;;;9.10;99.90;;;;;;2614786;54;20947;-77
2022/03/21 01:07:45;;;;;;;26.97;18.37;;;9.10;99.90;;;;;;2614703;47;20439;-78
2022/03/21 01:10:15;;;;;;;26.00;17.63;;;9.10;99.90;;;;;;2614076;54;20426;-78
2022/03/21 01:12:43;;;;;;;23.87;17.83;;;9.10;99.90;;;;;;2612544;39;20803;-77
2022/03/21 01:15:13;;;;;;;23.70;17.60;;;9.00;99.90;;;;;;2612713;54;20540;-77
2022/03/21 01:17:39;;;;;;;24.83;17.60;;;9.10;99.90;;;;;;2614144;47;20988;-76
2022/03/21 01:20:05;;;;;;;24.50;18.00;;;9.30;99.90;;;;;;2613476;47;20420;-76
2022/03/21 01:22:32;;;;;;;23.80;18.53;;;9.20;99.90;;;;;;2614423;46;20433;-77
2022/03/21 01:24:59;;;;;;;29.30;20.27;;;9.00;99.90;;;;;;2614602;47;20413;-76
2022/03/21 01:27:25;;;;;;;27.77;17.50;;;8.80;99.90;;;;;;2614413;54;20427;-77
2022/03/21 01:29:50;;;;;;;33.77;22.07;;;8.70;99.90;;;;;;2611194;47;20429;-76
2022/03/21 01:32:17;;;;;;;27.13;20.87;;;8.60;99.90;;;;;;2614264;54;20414;-77
2022/03/21 01:34:44;;;;;;;27.03;21.20;;;8.60;99.90;;;;;;2612937;47;20174;-78
2022/03/21 01:37:11;;;;;;;29.27;20.97;;;8.60;99.90;;;;;;2614932;47;20444;-76
2022/03/21 01:39:38;;;;;;;32.30;20.20;;;8.60;99.90;;;;;;2613592;54;20412;-78
2022/03/21 01:42:07;;;;;;;26.50;19.77;;;8.50;99.90;;;;;;2613113;47;20430;-78
2022/03/21 01:44:33;;;;;;;30.97;21.10;;;8.50;99.90;;;;;;2617702;54;20397;-77
2022/03/21 01:47:01;;;;;;;31.30;20.60;;;8.50;99.90;;;;;;2615258;47;20431;-77
2022/03/21 01:49:28;;;;;;;31.23;21.47;;;8.40;99.90;;;;;;2616141;54;20687;-77
2022/03/21 01:51:54;;;;;;;37.03;23.37;;;8.30;99.90;;;;;;2613420;39;20872;-77
2022/03/21 01:57:29;;;;;;;34.10;22.40;;;8.60;99.90;;;;;;2616059;54;20437;-78
2022/03/21 01:59:56;;;;;;;27.00;20.57;;;8.80;99.90;;;;;;2616149;47;20419;-76
2022/03/21 02:02:22;;;;;;;32.97;21.90;;;8.90;99.90;;;;;;2615198;54;20270;-74
2022/03/21 02:04:48;;;;;;;28.80;18.80;;;8.90;99.90;;;;;;2616354;47;20422;-75
2022/03/21 02:07:14;;;;;;;28.57;20.57;;;8.90;99.90;;;;;;2612247;47;20525;-74
2022/03/21 02:10:08;;;;;;;25.30;19.50;;;9.00;99.90;;;;;;2613847;39;21901;-74
2022/03/21 02:12:35;;;;;;;31.60;19.60;;;8.90;99.90;;;;;;2613642;47;20581;-77
2022/03/21 02:15:03;;;;;;;26.37;19.70;;;9.10;99.90;;;;;;2614032;54;20391;-78
2022/03/21 02:17:33;;;;;;;30.83;21.20;;;9.10;99.90;;;;;;2613250;54;20427;-79
2022/03/21 02:20:02;;;;;;;33.83;20.80;;;9.10;99.90;;;;;;2612742;54;20411;-78
2022/03/21 02:22:38;;;;;;;24.80;19.13;;;9.30;99.90;;;;;;2611486;47;20509;-78
2022/03/21 02:25:32;;;;;;;23.40;17.77;;;9.30;99.90;;;;;;2612328;54;20415;-77
2022/03/21 02:28:04;;;;;;;30.37;19.23;;;9.10;99.90;;;;;;2611983;54;20522;-78
2022/03/21 02:30:34;;;;;;;31.77;19.23;;;9.20;99.90;;;;;;2612891;47;20487;-79
2022/03/21 02:33:03;;;;;;;25.63;17.47;;;9.20;99.90;;;;;;2614108;54;20397;-78
2022/03/21 02:35:30;;;;;;;30.10;20.80;;;9.10;99.90;;;;;;2613330;47;20425;-78
2022/03/21 02:37:57;;;;;;;33.67;21.57;;;9.10;99.90;;;;;;2614196;39;20824;-77
2022/03/21 02:40:25;;;;;;;29.03;20.67;;;9.10;99.90;;;;;;2612368;47;20509;-77
2022/03/21 02:42:51;;;;;;;34.27;21.50;;;9.10;99.90;;;;;;2611931;54;21033;-78
2022/03/21 02:45:17;;;;;;;31.77;23.53;;;9.00;99.90;;;;;;2611428;47;20415;-77
2022/03/21 02:47:42;;;;;;;36.33;27.00;;;8.80;99.90;;;;;;2611144;54;20468;-77
2022/03/21 02:50:13;;;;;;;36.07;27.70;;;8.60;99.90;;;;;;2611786;46;20273;-77
2022/03/21 02:52:40;;;;;;;45.50;29.90;;;8.60;99.90;;;;;;2610973;54;20175;-79
2022/03/21 02:55:06;;;;;;;48.10;29.40;;;8.60;99.90;;;;;;2614789;54;20401;-79
2022/03/21 02:57:33;;;;;;;38.40;28.13;;;8.50;99.90;;;;;;2615153;54;20940;-77
2022/03/21 03:00:00;;;;;;;36.77;27.77;;;8.50;99.90;;;;;;2613359;54;21155;-77
2022/03/21 03:02:28;;;;;;;41.67;28.90;;;8.40;99.90;;;;;;2613132;54;20448;-78
2022/03/21 03:04:54;;;;;;;39.20;26.27;;;8.40;99.90;;;;;;2613818;39;20900;-77
2022/03/21 03:07:20;;;;;;;39.47;30.40;;;8.50;99.90;;;;;;2614319;51;20550;-78
2022/03/21 03:09:45;;;;;;;40.60;26.13;;;8.50;99.90;;;;;;2612834;47;20689;-78
2022/03/21 03:12:11;;;;;;;37.97;26.23;;;8.50;99.90;;;;;;2612395;47;20256;-78
2022/03/21 03:14:37;;;;;;;34.80;25.13;;;8.50;99.90;;;;;;2612894;54;20178;-77
2022/03/21 03:17:03;;;;;;;36.10;25.03;;;8.50;99.90;;;;;;2615386;39;20903;-77
2022/03/21 03:19:30;;;;;;;30.70;21.47;;;8.40;99.90;;;;;;2611841;54;20208;-78
2022/03/21 03:21:57;;;;;;;33.73;22.70;;;8.40;99.90;;;;;;2615227;31;20907;-77
2022/03/21 03:24:27;;;;;;;31.90;21.87;;;8.20;99.90;;;;;;2611766;46;20430;-78
2022/03/21 03:26:52;;;;;;;33.77;23.10;;;8.00;99.90;;;;;;2613728;54;20400;-77
2022/03/21 03:29:18;;;;;;;35.23;23.20;;;7.90;99.90;;;;;;2613816;39;20826;-78
2022/03/21 03:31:44;;;;;;;40.03;24.70;;;7.80;99.90;;;;;;2614813;54;20174;-77
2022/03/21 03:34:11;;;;;;;36.50;24.80;;;7.50;99.90;;;;;;2614638;54;20154;-77
2022/03/21 03:36:38;;;;;;;36.57;24.00;;;7.40;99.90;;;;;;2613271;54;20991;-76
2022/03/21 03:39:05;;;;;;;35.63;25.13;;;7.40;99.90;;;;;;2613357;47;20516;-78
2022/03/21 03:41:30;;;;;;;32.97;22.87;;;7.30;99.90;;;;;;2615106;54;20433;-78
2022/03/21 03:43:58;;;;;;;38.40;23.60;;;7.30;99.90;;;;;;2613143;54;20517;-77
2022/03/21 03:46:24;;;;;;;33.10;22.93;;;7.10;99.90;;;;;;2613651;54;20152;-77
2022/03/21 03:48:50;;;;;;;35.13;24.50;;;7.00;99.90;;;;;;2613910;54;20439;-77
2022/03/21 03:51:16;;;;;;;35.67;23.63;;;6.90;99.90;;;;;;2614274;54;20151;-77
2022/03/21 03:53:42;;;;;;;34.43;22.70;;;6.80;99.90;;;;;;2610661;47;20174;-78
2022/03/21 03:56:08;;;;;;;30.90;22.10;;;6.80;99.90;;;;;;2612061;47;20434;-77
2022/03/21 03:58:36;;;;;;;35.33;22.70;;;6.80;99.90;;;;;;2614311;54;20528;-76
2022/03/21 04:01:04;;;;;;;31.57;21.33;;;6.80;99.90;;;;;;2614574;54;20435;-77
2022/03/21 04:03:46;;;;;;;33.13;21.27;;;6.70;99.90;;;;;;2614470;39;20824;-77
2022/03/21 04:06:23;;;;;;;44.33;21.70;;;6.80;99.90;;;;;;2613472;47;20415;-78
2022/03/21 04:08:51;;;;;;;29.47;22.23;;;6.80;99.90;;;;;;2614920;54;20439;-78
2022/03/21 04:11:18;;;;;;;35.83;23.27;;;6.80;99.90;;;;;;2612726;47;20504;-78
2022/03/21 04:13:44;;;;;;;29.60;20.97;;;6.80;99.90;;;;;;2614542;54;20509;-77
2022/03/21 04:16:10;;;;;;;28.37;20.50;;;6.60;99.90;;;;;;2612935;54;20942;-77
2022/03/21 04:18:37;;;;;;;47.77;22.77;;;6.50;99.90;;;;;;2612107;54;20427;-78
2022/03/21 04:21:04;;;;;;;30.50;20.97;;;6.60;99.90;;;;;;2612755;54;20428;-78
2022/03/21 04:23:31;;;;;;;31.53;21.47;;;6.70;99.90;;;;;;2613246;47;20985;-78
2022/03/21 04:25:57;;;;;;;29.27;21.00;;;6.70;99.90;;;;;;2614695;54;20427;-77
2022/03/21 04:28:23;;;;;;;31.27;21.20;;;6.70;99.90;;;;;;2613736;47;20504;-78
2022/03/21 04:30:48;;;;;;;30.23;18.73;;;6.90;99.90;;;;;;2612114;54;20447;-77
2022/03/21 04:33:14;;;;;;;31.53;18.90;;;7.10;99.90;;;;;;2613704;54;20164;-77
2022/03/21 04:35:41;;;;;;;31.67;21.23;;;6.90;99.90;;;;;;2610984;47;20163;-76
2022/03/21 04:38:15;;;;;;;31.63;20.53;;;6.90;99.90;;;;;;2614686;39;20555;-77
2022/03/21 04:40:45;;;;;;;28.83;20.57;;;6.90;99.90;;;;;;2612134;54;20511;-77
2022/03/21 04:43:11;;;;;;;30.90;20.90;;;6.70;99.90;;;;;;2613931;54;20433;-77
2022/03/21 04:45:38;;;;;;;27.03;18.43;;;6.50;99.90;;;;;;2615202;39;21788;-78
2022/03/21 04:48:05;;;;;;;29.40;20.67;;;6.60;99.90;;;;;;2613018;39;20483;-78
2022/03/21 04:50:32;;;;;;;34.30;20.93;;;6.70;99.90;;;;;;2611479;54;20490;-77
2022/03/21 04:52:59;;;;;;;28.30;19.50;;;6.80;99.90;;;;;;2612393;46;20428;-77
2022/03/21 04:55:25;;;;;;;29.47;20.83;;;6.90;99.90;;;;;;2615918;46;20455;-77
2022/03/21 04:57:51;;;;;;;30.87;20.93;;;7.10;99.90;;;;;;2614838;54;20397;-78
2022/03/21 05:00:17;;;;;;;30.17;20.30;;;7.20;99.90;;;;;;2614507;39;20828;-76
2022/03/21 05:02:43;;;;;;;31.20;22.43;;;7.10;99.90;;;;;;2615208;47;20190;-77
2022/03/21 05:05:09;;;;;;;30.90;19.40;;;7.00;99.90;;;;;;2614598;54;20408;-79
2022/03/21 05:07:42;;;;;;;30.17;20.63;;;7.00;99.90;;;;;;2616466;46;20651;-78
2022/03/21 05:10:09;;;;;;;32.60;21.40;;;6.90;99.90;;;;;;2614083;31;20926;-78
2022/03/21 05:12:36;;;;;;;30.70;19.80;;;6.90;99.90;;;;;;2614224;54;20447;-78
2022/03/21 05:15:03;;;;;;;31.90;21.80;;;7.00;99.90;;;;;;2614581;54;20996;-79
2022/03/21 05:17:29;;;;;;;29.77;20.30;;;7.20;99.90;;;;;;2612894;47;20433;-79
2022/03/21 05:19:56;;;;;;;35.73;22.17;;;7.20;99.90;;;;;;2614158;47;20428;-78
2022/03/21 05:22:23;;;;;;;40.50;21.20;;;7.00;99.90;;;;;;2616280;54;20421;-79
2022/03/21 05:35:57;;;;;;;29.87;19.20;;;6.90;99.90;;;;;;2614003;54;20444;-77
2022/03/21 05:38:27;;;;;;;33.20;20.77;;;6.80;99.90;;;;;;2615345;47;20388;-78
2022/03/21 05:40:59;;;;;;;26.90;20.63;;;6.60;99.90;;;;;;2614733;39;20800;-78
2022/03/21 05:43:31;;;;;;;31.30;21.27;;;6.40;99.90;;;;;;2614439;47;20450;-76
2022/03/21 05:46:01;;;;;;;28.70;20.93;;;6.10;99.90;;;;;;2613695;47;20436;-78
2022/03/21 05:51:13;;;;;;;29.53;20.80;;;6.10;99.90;;;;;;2612270;54;20426;-77
2022/03/21 05:53:39;;;;;;;35.07;20.10;;;6.00;99.90;;;;;;2612678;54;20419;-77
2022/03/21 05:56:05;;;;;;;26.73;20.10;;;6.00;99.90;;;;;;2614826;54;20420;-77
2022/03/21 05:58:31;;;;;;;32.80;22.03;;;6.00;99.90;;;;;;2613504;54;20415;-77
2022/03/21 06:00:57;;;;;;;35.10;22.70;;;6.10;99.90;;;;;;2612177;47;20433;-78
2022/03/21 06:03:24;;;;;;;36.47;23.80;;;6.00;99.90;;;;;;2612586;54;20424;-78
2022/03/21 06:05:51;;;;;;;36.20;24.43;;;5.80;99.90;;;;;;2610989;46;20449;-78
2022/03/21 06:08:17;;;;;;;30.70;21.67;;;5.80;99.90;;;;;;2611758;39;20806;-77
2022/03/21 06:10:45;;;;;;;38.37;21.40;;;5.90;99.90;;;;;;2611701;54;20412;-78
2022/03/21 06:13:11;;;;;;;51.53;23.60;;;5.90;99.90;;;;;;2614760;54;20392;-77
2022/03/21 06:15:39;;;;;;;33.17;23.43;;;6.00;99.90;;;;;;2615055;47;20480;-78
2022/03/21 06:18:09;;;;;;;40.30;24.73;;;6.10;99.90;;;;;;2612717;47;20162;-76
2022/03/21 06:20:36;;;;;;;40.80;23.70;;;6.40;99.90;;;;;;2610299;54;20416;-76
2022/03/21 06:23:02;;;;;;;35.90;24.70;;;6.50;99.90;;;;;;2612302;47;20449;-77
2022/03/21 06:25:28;;;;;;;39.73;25.63;;;6.50;99.90;;;;;;2613892;47;20409;-78
2022/03/21 06:27:54;;;;;;;38.37;24.53;;;6.60;99.90;;;;;;2615246;39;20835;-79
2022/03/21 06:30:20;;;;;;;41.23;24.87;;;6.70;99.90;;;;;;2616817;54;20457;-79
2022/03/21 06:32:46;;;;;;;31.40;22.13;;;6.90;99.90;;;;;;2615363;54;20420;-76
2022/03/21 06:35:12;;;;;;;36.33;26.13;;;7.20;99.90;;;;;;2612414;54;20490;-76
2022/03/21 06:37:39;;;;;;;32.67;22.50;;;7.50;99.90;;;;;;2614854;47;20401;-79
2022/03/21 06:40:06;;;;;;;34.13;22.87;;;7.70;99.90;;;;;;2615196;54;20405;-78
2022/03/21 06:42:32;;;;;;;30.63;22.40;;;8.10;99.90;;;;;;2613885;54;21081;-78
2022/03/21 06:44:58;;;;;;;31.97;21.10;;;8.40;99.90;;;;;;2610899;47;20963;-78
2022/03/21 06:47:24;;;;;;;31.43;21.60;;;8.70;99.90;;;;;;2612381;47;20430;-78
2022/03/21 06:49:50;;;;;;;32.33;22.50;;;9.10;99.90;;;;;;2613069;54;20143;-78
2022/03/21 06:52:18;;;;;;;34.73;23.23;;;9.40;99.90;;;;;;2612110;54;20443;-79
2022/03/21 06:54:49;;;;;;;34.97;23.00;;;9.70;99.90;;;;;;2613142;54;20146;-78
2022/03/21 06:57:18;;;;;;;30.77;21.87;;;9.60;99.90;;;;;;2613061;39;20962;-77
2022/03/21 06:59:48;;;;;;;29.00;22.07;;;9.50;99.90;;;;;;2612437;46;20427;-80
2022/03/21 07:02:16;;;;;;;35.40;24.23;;;9.90;99.90;;;;;;2612093;47;21083;-78
2022/03/21 07:04:43;;;;;;;36.30;23.03;;;10.20;99.90;;;;;;2610753;46;20510;-78
2022/03/21 07:07:08;;;;;;;37.83;25.00;;;10.60;99.90;;;;;;2613039;54;20382;-78
2022/03/21 07:09:34;;;;;;;33.20;25.40;;;11.20;99.90;;;;;;2612161;39;20795;-77
2022/03/21 07:12:00;;;;;;;36.87;27.23;;;11.60;99.90;;;;;;2611748;47;20176;-78
2022/03/21 07:14:26;;;;;;;42.63;27.20;;;12.00;99.90;;;;;;2612959;54;20467;-78
2022/03/21 07:16:52;;;;;;;32.37;25.70;;;12.30;99.90;;;;;;2611633;47;20775;-79
2022/03/21 07:19:17;;;;;;;35.33;25.37;;;12.30;99.90;;;;;;2613490;54;20143;-78
2022/03/21 07:21:43;;;;;;;35.87;26.83;;;12.70;99.90;;;;;;2613190;47;20282;-78
2022/03/21 07:24:09;;;;;;;39.80;28.37;;;12.80;96.30;;;;;;2612572;54;21293;-78
2022/03/21 07:26:37;;;;;;;29.07;25.97;;;12.80;97.10;;;;;;2612396;54;21845;-78
2022/03/21 07:29:04;;;;;;;34.40;26.70;;;13.20;91.50;;;;;;2612140;39;20812;-78
2022/03/21 07:31:31;;;;;;;35.13;26.90;;;13.40;84.20;;;;;;2612437;54;20399;-78
2022/03/21 07:34:00;;;;;;;30.77;26.90;;;13.50;77.60;;;;;;2613601;54;20404;-78
2022/03/21 07:36:25;;;;;;;35.33;27.07;;;13.80;74.70;;;;;;2611337;54;20583;-78
2022/03/21 07:38:53;;;;;;;28.83;25.57;;;14.20;65.00;;;;;;2613077;47;20420;-79
2022/03/21 07:41:23;;;;;;;31.30;25.13;;;14.80;51.30;;;;;;2612825;39;20693;-78
2022/03/21 07:43:49;;;;;;;31.63;25.53;;;15.30;39.40;;;;;;2613123;54;20404;-78
2022/03/21 07:48:59;;;;;;;28.67;23.07;;;15.50;31.30;;;;;;2612467;51;20287;-78
2022/03/21 07:51:25;;;;;;;31.47;20.97;;;15.70;24.50;;;;;;2613006;54;20447;-79
2022/03/21 07:53:51;;;;;;;25.40;20.83;;;15.70;14.40;;;;;;2612386;47;20174;-78
2022/03/21 07:56:17;;;;;;;24.40;19.10;;;15.40;10.00;;;;;;2612084;54;20294;-78
2022/03/21 07:58:43;;;;;;;30.23;19.50;;;15.30;11.00;;;;;;2613361;47;20159;-77
2022/03/21 08:01:09;;;;;;;22.60;18.47;;;15.20;12.20;;;;;;2612579;47;22037;-77
2022/03/21 08:03:36;;;;;;;27.50;19.57;;;15.30;10.20;;;;;;2612358;54;20432;-77
2022/03/21 08:06:03;;;;;;;20.53;18.30;;;15.50;9.30;;;;;;2611213;54;20526;-77
2022/03/21 08:08:29;;;;;;;19.50;17.40;;;15.50;6.20;;;;;;2612210;54;20419;-78
2022/03/21 08:10:57;;;;;;;19.40;16.47;;;15.40;4.50;;;;;;2612605;54;20416;-78
2022/03/21 08:13:25;;;;;;;21.77;16.80;;;15.20;1.00;;;;;;2612662;54;20462;-78
2022/03/21 08:15:52;;;;;;;18.80;16.93;;;15.10;1.80;;;;;;2612511;54;21002;-78
2022/03/21 08:18:18;;;;;;;22.37;18.33;;;15.50;1.00;;;;;;2616245;47;20919;-78
2022/03/21 08:20:44;;;;;;;22.53;17.90;;;15.20;1.00;;;;;;2616345;47;20402;-78
2022/03/21 08:23:12;;;;;;;20.50;15.73;;;15.00;1.00;;;;;;2616387;47;21037;-79
2022/03/21 08:25:40;;;;;;;17.90;16.00;;;15.00;1.00;;;;;;2616140;54;20143;-78
2022/03/21 08:28:08;;;;;;;19.10;17.10;;;15.20;1.00;;;;;;2616343;51;20391;-78
2022/03/21 08:30:35;;;;;;;20.50;17.23;;;15.40;1.00;;;;;;2615514;46;20406;-78
2022/03/21 08:33:03;;;;;;;20.00;17.40;;;15.70;1.00;;;;;;2615851;54;20410;-78
2022/03/21 08:35:32;;;;;;;20.53;17.50;;;15.60;1.00;;;;;;2614062;47;20431;-79
2022/03/21 08:37:59;;;;;;;18.57;16.03;;;15.80;1.00;;;;;;2613998;54;20426;-82
2022/03/21 08:40:26;;;;;;;25.30;18.50;;;15.60;1.00;;;;;;2612987;47;20415;-81
2022/03/21 08:42:53;;;;;;;21.03;17.00;;;15.80;1.00;;;;;;2614242;54;20406;-79
2022/03/21 08:45:21;;;;;;;20.33;18.13;;;16.10;1.00;;;;;;2613093;47;20487;-78
2022/03/21 08:47:49;;;;;;;22.70;17.57;;;16.30;1.00;;;;;;2613635;54;20418;-80
2022/03/21 08:50:14;;;;;;;18.53;15.80;;;16.70;1.00;;;;;;2615684;46;20420;-79
2022/03/21 08:52:40;;;;;;;22.40;19.97;;;16.80;1.00;;;;;;2614076;54;20459;-80
2022/03/21 08:55:07;;;;;;;22.70;18.53;;;16.60;1.00;;;;;;2614607;54;20210;-79
2022/03/21 08:57:33;;;;;;;23.67;16.57;;;16.80;1.00;;;;;;2612807;47;20209;-80
2022/03/21 08:59:59;;;;;;;19.70;17.60;;;16.80;1.00;;;;;;2612839;47;20434;-80
2022/03/21 09:02:26;;;;;;;18.90;16.90;;;17.10;1.00;;;;;;2613297;47;20463;-81
2022/03/21 09:04:52;;;;;;;19.30;17.20;;;17.50;1.00;;;;;;2613981;47;20417;-82
2022/03/21 09:07:19;;;;;;;18.70;15.83;;;17.80;1.00;;;;;;2614511;54;20554;-80
2022/03/21 09:09:45;;;;;;;22.20;17.93;;;17.90;1.00;;;;;;2611985;54;20409;-80
2022/03/21 09:12:12;;;;;;;21.53;19.30;;;18.10;1.00;;;;;;2612476;54;20432;-81
2022/03/21 09:14:39;;;;;;;21.30;18.70;;;17.70;1.00;;;;;;2613549;47;20412;-80
2022/03/21 09:17:04;;;;;;;21.93;17.93;;;18.00;1.00;;;;;;2612507;54;20468;-81
2022/03/21 09:19:30;;;;;;;23.57;19.93;;;18.10;1.00;;;;;;2614785;54;20411;-79
2022/03/21 09:21:57;;;;;;;22.10;19.87;;;18.00;1.00;;;;;;2615076;39;20828;-78
2022/03/21 09:24:25;;;;;;;19.83;17.67;;;18.20;1.00;;;;;;2613450;54;20191;-78
2022/03/21 09:26:53;;;;;;;20.23;18.13;;;18.10;1.00;;;;;;2614988;54;20479;-81
2022/03/21 09:29:19;;;;;;;22.20;19.83;;;17.70;1.00;;;;;;2612506;46;20459;-79
2022/03/21 09:31:47;;;;;;;25.23;18.13;;;17.90;1.00;;;;;;2612854;46;20463;-78
2022/03/21 09:34:16;;;;;;;22.87;19.20;;;18.30;1.00;;;;;;2613718;47;20171;-79
2022/03/21 09:36:42;;;;;;;21.10;19.00;;;18.60;1.00;;;;;;2612281;54;20443;-79
2022/03/21 09:39:12;;;;;;;20.47;18.00;;;18.60;1.00;;;;;;2611822;54;20425;-79
2022/03/21 09:41:38;;;;;;;22.20;20.00;;;19.00;1.00;;;;;;2612601;54;20979;-79
2022/03/21 09:44:10;;;;;;;24.07;19.97;;;19.10;1.00;;;;;;2614075;47;20424;-80
2022/03/21 09:46:39;;;;;;;22.17;19.90;;;18.80;1.00;;;;;;2614604;47;20420;-79
2022/03/21 09:49:07;;;;;;;23.60;21.13;;;19.00;1.00;;;;;;2614121;54;20412;-79
2022/03/21 09:51:33;;;;;;;21.73;19.00;;;19.60;1.00;;;;;;2615089;47;20410;-80
2022/03/21 09:54:00;;;;;;;20.87;18.90;;;20.20;1.00;;;;;;2615270;54;21047;-81
2022/03/21 09:56:27;;;;;;;20.57;18.47;;;20.00;1.00;;;;;;2614580;54;20496;-79
2022/03/21 09:58:59;;;;;;;21.53;19.40;;;20.00;1.00;;;;;;2618525;54;20430;-79
2022/03/21 10:01:26;;;;;;;25.53;21.27;;;20.30;1.00;;;;;;2617710;54;20591;-79
2022/03/21 10:03:52;;;;;;;20.13;18.00;;;20.40;1.00;;;;;;2616565;47;20449;-79
2022/03/21 10:06:33;;;;;;;21.40;19.10;;;20.40;1.00;;;;;;2614629;46;20426;-79
2022/03/21 10:09:19;;;;;;;21.27;19.13;;;20.40;1.00;;;;;;2616572;54;20429;-79
2022/03/21 10:11:55;;;;;;;20.97;18.77;;;20.60;1.00;;;;;;2616372;54;20429;-78
2022/03/21 10:14:25;;;;;;;21.20;19.10;;;20.30;1.00;;;;;;2617500;47;20450;-78
2022/03/21 10:17:03;;;;;;;22.93;20.30;;;20.00;1.00;;;;;;2615752;47;20413;-79
2022/03/21 10:19:48;;;;;;;22.20;19.80;;;20.30;1.00;;;;;;2614499;54;20412;-80
2022/03/21 10:22:23;;;;;;;23.90;20.03;;;19.90;1.00;;;;;;2614035;39;22010;-80
2022/03/21 10:24:51;;;;;;;20.10;18.00;;;19.90;1.00;;;;;;2614182;54;20888;-78
2022/03/21 10:27:37;;;;;;;20.50;18.50;;;20.20;1.00;;;;;;2613974;47;20970;-80
2022/03/21 10:30:13;;;;;;;21.50;19.40;;;20.80;1.00;;;;;;2611114;54;20437;-80
2022/03/21 10:32:43;;;;;;;21.77;19.60;;;21.70;1.00;;;;;;2612169;54;20458;-80
2022/03/21 10:35:23;;;;;;;23.10;20.63;;;21.30;1.00;;;;;;2614602;54;20418;-79
2022/03/21 10:37:58;;;;;;;22.53;20.23;;;21.10;1.00;;;;;;2614361;54;20425;-80
2022/03/21 10:40:31;;;;;;;23.77;21.37;;;21.40;1.00;;;;;;2613528;31;20911;-79
2022/03/21 10:43:06;;;;;;;23.10;20.73;;;21.80;1.00;;;;;;2612868;39;20815;-79
2022/03/21 10:45:35;;;;;;;23.17;20.43;;;21.80;1.00;;;;;;2613604;47;20460;-77
2022/03/21 10:48:04;;;;;;;23.03;20.73;;;21.90;1.00;;;;;;2614126;39;20583;-78
2022/03/21 10:50:36;;;;;;;24.70;19.20;;;21.60;1.00;;;;;;2613723;47;20450;-78
2022/03/21 10:53:15;;;;;;;24.60;18.40;;;21.00;1.00;;;;;;2614772;51;21008;-79
2022/03/21 10:55:49;;;;;;;21.73;18.67;;;20.80;1.00;;;;;;2614395;39;20799;-79
2022/03/21 10:58:32;;;;;;;23.03;20.90;;;21.10;1.00;;;;;;2614279;54;20414;-80
2022/03/21 11:01:17;;;;;;;22.37;20.17;;;21.60;1.00;;;;;;2613122;54;20418;-80
2022/03/21 11:03:45;;;;;;;22.33;20.13;;;21.60;1.00;;;;;;2612683;47;21002;-79
2022/03/21 11:06:13;;;;;;;22.30;19.97;;;21.30;1.00;;;;;;2614451;54;20412;-80
2022/03/21 11:08:40;;;;;;;21.07;18.97;;;21.50;1.00;;;;;;2613107;54;20434;-80
2022/03/21 11:11:08;;;;;;;21.33;19.23;;;22.10;1.00;;;;;;2612111;46;20436;-78
2022/03/21 11:13:37;;;;;;;19.27;17.47;;;22.50;1.00;;;;;;2613294;39;20935;-79
2022/03/21 11:16:03;;;;;;;19.20;17.27;;;22.60;1.00;;;;;;2612924;54;20428;-80
2022/03/21 11:18:30;;;;;;;22.87;20.57;;;22.50;1.00;;;;;;2612933;54;20411;-80
2022/03/21 11:20:58;;;;;;;20.30;18.33;;;21.50;1.00;;;;;;2613551;54;20426;-80
2022/03/21 11:23:25;;;;;;;24.60;19.87;;;21.40;1.00;;;;;;2612170;39;20864;-77
2022/03/21 11:26:11;;;;;;;20.10;17.97;;;21.20;1.00;;;;;;2612677;47;20550;-79
2022/03/21 11:29:12;;;;;;;22.17;18.77;;;21.30;1.00;;;;;;2613092;54;20394;-78
2022/03/21 11:32:06;;;;;;;19.03;17.23;;;21.30;1.00;;;;;;2612808;51;20415;-78
2022/03/21 11:34:57;;;;;;;19.17;17.37;;;21.70;1.00;;;;;;2614824;39;20824;-78
2022/03/21 11:37:29;;;;;;;20.80;18.60;;;21.20;1.00;;;;;;2614438;47;20524;-80
2022/03/21 11:40:34;;;;;;;29.77;19.40;;;21.30;1.00;;;;;;2613378;47;20430;-80
2022/03/21 11:43:16;;;;;;;18.67;16.77;;;21.10;1.00;;;;;;2613486;54;20426;-81
2022/03/21 11:45:47;;;;;;;20.90;17.00;;;21.80;1.00;;;;;;2615079;47;20441;-81
2022/03/21 11:48:22;;;;;;;18.70;17.20;;;22.20;1.00;;;;;;2613220;47;20450;-83
2022/03/21 11:51:14;;;;;;;16.40;14.90;;;22.10;1.00;;;;;;2613616;54;20421;-77
2022/03/21 11:53:50;;;;;;;18.80;16.63;;;22.00;1.00;;;;;;2613884;46;20449;-80
2022/03/21 11:56:47;;;;;;;20.90;18.90;;;22.00;1.00;;;;;;2612950;54;20421;-80
2022/03/21 11:59:32;;;;;;;18.30;15.57;;;21.90;1.00;;;;;;2615207;39;20813;-80
2022/03/21 12:02:10;;;;;;;16.23;14.70;;;22.10;1.00;;;;;;2615544;47;20426;-80
2022/03/21 12:04:55;;;;;;;19.70;15.73;;;22.30;1.00;;;;;;2615616;47;20409;-80
2022/03/21 12:07:21;;;;;;;15.50;13.90;;;22.20;1.00;;;;;;2616375;39;20818;-80
2022/03/21 12:09:57;;;;;;;15.77;14.40;;;22.80;1.00;;;;;;2615641;54;20426;-79
2022/03/21 12:12:51;;;;;;;15.20;14.00;;;22.70;1.00;;;;;;2616020;47;20440;-79
2022/03/21 12:15:31;;;;;;;18.33;15.53;;;22.90;1.00;;;;;;2616962;54;21283;-79
2022/03/21 12:17:58;;;;;;;16.23;13.57;;;23.00;1.00;;;;;;2615315;54;20429;-80
2022/03/21 12:20:25;;;;;;;14.50;12.70;;;22.60;1.00;;;;;;2613435;47;20426;-80
2022/03/21 12:23:00;;;;;;;15.93;14.33;;;22.40;1.00;;;;;;2613958;46;20432;-80
2022/03/21 12:25:29;;;;;;;14.50;13.07;;;21.80;1.00;;;;;;2613608;39;20907;-81
2022/03/21 12:28:21;;;;;;;15.57;13.33;;;21.70;1.00;;;;;;2614152;54;20430;-78
2022/03/21 12:30:50;;;;;;;14.40;13.20;;;21.90;1.00;;;;;;2613350;47;20442;-80
2022/03/21 12:33:18;;;;;;;14.73;13.30;;;22.30;1.00;;;;;;2613732;47;20535;-80
2022/03/21 12:35:45;;;;;;;16.67;14.30;;;22.30;1.00;;;;;;2613509;54;20417;-80
2022/03/21 12:38:17;;;;;;;15.90;14.10;;;22.10;1.00;;;;;;2613926;47;20438;-78
2022/03/21 12:40:46;;;;;;;13.37;12.10;;;22.10;1.00;;;;;;2613778;47;20703;-80
2022/03/21 12:43:13;;;;;;;13.77;12.50;;;22.10;1.00;;;;;;2615585;54;20414;-80
2022/03/21 12:45:44;;;;;;;13.50;12.17;;;22.00;1.00;;;;;;2613908;39;21029;-78
2022/03/21 12:48:12;;;;;;;14.77;13.30;;;22.50;1.00;;;;;;2612555;47;20986;-79
2022/03/21 12:50:39;;;;;;;15.77;12.20;;;22.80;1.00;;;;;;2614485;54;20423;-79
2022/03/21 12:53:10;;;;;;;13.43;12.10;;;22.20;1.00;;;;;;2612190;46;20456;-79
2022/03/21 12:55:38;;;;;;;15.10;12.87;;;22.10;1.00;;;;;;2612725;54;21003;-80
2022/03/21 12:58:10;;;;;;;12.77;11.67;;;21.80;1.00;;;;;;2614106;47;20413;-80
2022/03/21 13:00:39;;;;;;;12.63;11.53;;;21.70;1.00;;;;;;2615447;39;20837;-78
2022/03/21 13:03:12;;;;;;;12.70;11.60;;;21.80;1.00;;;;;;2614074;47;20479;-78
2022/03/21 13:11:31;;;;;;;13.63;12.30;;;21.60;1.00;;;;;;2614909;47;20424;-79